Latest Coastal Weather Observations for Albany Airport

IDW60701

Issued at 3:45 am WST Saturday 20 September 2014 (issued every 10 minutes, with the page automatically refreshed every 10 minutes)

About coastal observations | Map of coastal stations | Coastal observations for WA | Marine services | Other Formats
Station Details ID: 009999 Name: ALBANY AIRPORT Lat: -34.94 Lon: 117.82 Height: 68.4 m
Data from the previous 72 hours. | See also: Recent months at Albany Airport
Date/Time
WST
Temp

°C
Wind Pressure Rain
since 9am
mm
Weather Cloud Vis
km
Sea
Height
m
Swell
Dir
 
Speed
knots
Gust
knots
hPa Trend Height
m
Period
s
Dir
20/03:30am 12.0 NE 9 12 1019.5 - 0.0 - - 10 - - - -
20/03:00am 11.8 NE 7 10 1020.0 - 0.0 - - 10 - - - -
20/02:30am 12.0 NE 10 13 1020.0 - 0.0 - - 10 - - - -
20/02:00am 12.1 NE 9 12 1020.3 - 0.0 - - 10 - - - -
20/01:30am 11.9 ENE 10 11 1020.5 - 0.0 - - 10 - - - -
20/01:00am 11.9 ENE 9 11 1020.8 - 0.0 - - 10 - - - -
20/12:30am 12.7 NE 9 12 1020.9 - 0.0 - - 10 - - - -
20/12:00am 12.6 NE 9 12 1021.2 - 0.0 - - 10 - - - -
 
Date/Time
WST
Temp

°C
Wind Pressure Rain
since 9am
mm
Weather Cloud Vis
km
Sea
Height
m
Swell
Dir
 
Speed
knots
Gust
knots
hPa Trend Height
m
Period
s
Dir
19/11:30pm 12.4 NE 9 13 1021.2 - 0.0 - - 10 - - - -
19/11:00pm 12.0 ENE 8 10 1021.4 - 0.0 - - 10 - - - -
19/10:30pm 12.5 ENE 9 11 1021.6 - 0.0 - - 10 - - - -
19/10:00pm 12.6 ENE 8 11 1021.8 - 0.0 - - 10 - - - -
19/09:30pm 12.4 ENE 7 8 1022.2 - 0.0 - - 10 - - - -
19/09:00pm 12.2 ENE 6 7 1022.6 - 0.0 - - 10 - - - -
19/08:30pm 13.0 E 6 7 1022.5 - 0.0 - - 10 - - - -
19/08:00pm 13.0 ENE 7 8 1022.5 - 0.0 - - 10 - - - -
19/07:30pm 13.2 E 6 6 1022.3 - 0.0 - - 10 - - - -
19/07:00pm 13.9 E 5 6 1022.1 - 0.0 - - 10 - - - -
19/06:30pm 14.1 E 7 8 1021.7 - 0.0 - - 10 - - - -
19/06:00pm 15.1 ESE 7 9 1021.6 - 0.0 - - 10 - - - -
19/05:30pm 16.3 ESE 7 10 1021.2 - 0.0 - - 10 - - - -
19/05:00pm 17.1 ESE 10 13 1020.9 - 0.0 - Mostly clear 10 - - - -
19/04:30pm 18.3 SE 9 11 1020.7 - 0.0 - Mostly clear 10 - - - -
19/04:00pm 18.7 ESE 11 13 1020.6 - 0.0 - Mostly clear 10 - - - -
19/03:30pm 19.9 ESE 9 10 1020.3 - 0.0 - Mostly clear 10 - - - -
19/03:00pm 20.7 SSE 7 8 1020.4 F 0.0 Haze Partly cloudy 25 - - - -
19/02:30pm 20.6 E 7 9 1020.3 - 0.0 - Mostly clear 10 - - - -
19/02:00pm 20.7 E 3 6 1020.2 - 0.0 - Mostly clear 10 - - - -
19/01:30pm 20.7 S 5 8 1020.6 - 0.0 - Mostly clear 10 - - - -
19/01:00pm 21.1 NNW 2 4 1020.9 - 0.0 - Mostly clear 10 - - - -
19/12:30pm 20.7 WNW 4 6 1021.3 - 0.0 - Partly cloudy 10 - - - -
19/12:00pm 20.3 NW 7 10 1021.8 F 0.0 Haze Partly cloudy 25 - - - -
19/11:30am 19.6 W 5 9 1021.7 - 0.0 - Mostly clear 10 - - - -
19/11:00am 19.7 NW 5 9 1021.8 - 0.0 - Mostly clear 10 - - - -
19/10:30am 18.6 WSW 2 6 1021.8 - 0.0 - Mostly clear 10 - - - -
19/10:00am 18.1 SW 4 8 1022.0 - 0.0 - Mostly clear 10 - - - -
19/09:30am 17.0 S 5 7 1022.2 - 0.0 - Mostly clear 10 - - - -
19/09:00am 17.0 WSW 6 9 1022.5 R 0.0 Haze Partly cloudy 25 - - - -
19/08:30am 16.3 WSW 6 9 1022.1 - 0.0 - Mostly clear 10 - - - -
19/08:00am 15.7 W 5 6 1021.7 - 0.0 - Mostly clear 10 - - - -
19/07:30am 14.0 WNW 5 6 1021.4 - 0.0 - Mostly clear 10 - - - -
19/07:00am 12.9 WNW 6 7 1021.1 - 0.0 - Mostly clear 10 - - - -
19/06:30am 12.5 WNW 5 7 1020.6 - 0.0 - Mostly clear 10 - - - -
19/06:00am 12.9 WNW 5 6 1020.6 R 0.0 Fine Mostly cloudy 25 - - - -
19/05:30am 12.7 WNW 6 8 1020.3 - 0.0 - Partly cloudy 10 - - - -
19/05:06am 12.9 WNW 6 7 1019.8 - 0.0 - Partly cloudy 10 - - - -
19/05:00am 13.0 W 7 8 1019.8 - 0.0 - Partly cloudy 10 - - - -
19/04:30am 12.9 WNW 7 8 1019.4 - 0.0 - Cloudy 10 - - - -
19/04:12am 12.4 NW 7 9 1019.2 - 0.0 - Partly cloudy 6 - - - -
19/04:10am 12.4 NW 7 9 1019.2 - 0.0 - Partly cloudy 8 - - - -
19/04:00am 12.3 NW 8 10 1018.9 - 0.0 - Partly cloudy 10 - - - -
19/03:30am 11.4 NW 7 8 1018.5 - 0.0 - Partly cloudy 10 - - - -
19/03:00am 11.4 NW 7 8 1018.5 - 0.0 - - 10 - - - -
19/02:30am 11.6 NNW 6 7 1018.3 - 0.0 - - 10 - - - -
19/02:00am 11.9 NW 7 9 1018.5 - 0.0 - - 10 - - - -
19/01:30am 12.2 NW 8 10 1018.4 - 0.0 - - 10 - - - -
19/01:00am 12.6 NW 8 10 1018.4 - 0.0 - - 10 - - - -
19/12:30am 12.1 NW 7 10 1018.6 - 0.0 - - 10 - - - -
19/12:00am 12.3 NW 7 8 1018.8 - 0.0 - - 10 - - - -
 
Date/Time
WST
Temp

°C
Wind Pressure Rain
since 9am
mm
Weather Cloud Vis
km
Sea
Height
m
Swell
Dir
 
Speed
knots
Gust
knots
hPa Trend Height
m
Period
s
Dir
18/11:30pm 12.0 NW 8 8 1018.7 - 0.0 - - 10 - - - -
18/11:00pm 11.8 NW 8 9 1018.8 - 0.0 - - 10 - - - -
18/10:30pm 13.3 WNW 7 10 1018.8 - 0.0 - - 10 - - - -
18/10:00pm 12.5 NW 6 7 1018.7 - 0.0 - - 7 - - - -
18/09:30pm 13.9 W 5 5 1018.8 - 0.0 - Partly cloudy 10 - - - -
18/09:00pm 13.7 NW 3 4 1018.6 - 0.0 - Cloudy 10 - - - -
18/08:30pm 13.7 WNW 3 4 1018.5 - 0.0 - Cloudy 10 - - - -
18/08:00pm 12.9 CALM 0 0 1018.1 - 0.0 - Partly cloudy 8 - - - -
18/07:59pm 13.0 CALM 0 0 1018.0 - 0.0 - Partly cloudy 8 - - - -
18/07:48pm 13.3 CALM 0 0 1018.0 - 0.0 - Partly cloudy 8 - - - -
18/07:46pm 13.2 CALM 0 0 1018.0 - 0.0 - Partly cloudy 8 - - - -
18/07:30pm 12.9 CALM 0 0 1017.9 - 0.0 - Partly cloudy 6 - - - -
18/07:28pm 12.8 CALM 0 0 1017.9 - 0.0 - Partly cloudy 6 - - - -
18/07:00pm 12.9 CALM 0 0 1017.5 - 0.0 - Partly cloudy 10 - - - -
18/06:30pm 15.2 SW 5 5 1017.3 - 0.0 - Partly cloudy 10 - - - -
18/06:00pm 16.0 S 3 3 1017.1 - 0.0 - Cloudy 10 - - - -
18/05:30pm 16.9 SSW 5 6 1016.9 - 0.0 - - 10 - - - -
18/05:00pm 17.2 SSW 7 8 1016.4 - 0.0 - Partly cloudy 10 - - - -
18/04:30pm 18.2 SSW 9 11 1016.2 - 0.0 - Partly cloudy 10 - - - -
18/04:00pm 18.9 SSW 9 13 1016.1 - 0.0 - Mostly clear 10 - - - -
18/03:30pm 18.9 SSW 9 12 1015.8 - 0.0 - Mostly clear 10 - - - -
18/03:00pm 19.8 SSW 11 15 1015.8 R 0.0 Fine Partly cloudy 30 - - - -
18/02:30pm 19.7 SSW 12 17 1015.5 - 0.0 - Mostly clear 10 - - - -
18/02:00pm 20.2 SSW 14 18 1015.7 - 0.0 - Mostly clear 10 - - - -
18/01:30pm 21.2 SSW 11 14 1015.5 - 0.0 - Mostly clear 10 - - - -
18/01:00pm 22.0 S 12 16 1015.5 - 0.0 - Mostly clear 10 - - - -
18/12:30pm 22.6 W 7 10 1015.8 - 0.0 - Mostly clear 10 - - - -
18/12:00pm 22.1 NW 7 11 1016.3 F 0.0 Smoke Mostly cloudy 25 - - - -
18/11:30am 21.5 NNW 8 11 1016.4 - 0.0 - Mostly clear 10 - - - -
18/11:00am 21.5 N 9 12 1016.7 - 0.0 - Mostly clear 10 - - - -
18/10:30am 20.9 N 8 11 1017.2 - 0.0 - Mostly clear 10 - - - -
18/10:00am 20.2 NNW 6 10 1017.7 - 0.0 - Mostly clear 10 - - - -
18/09:30am 18.3 NE 3 5 1017.8 - 0.0 - Mostly clear 10 - - - -
18/09:00am 17.3 N 3 5 1018.2 F 0.0 Smoke Mostly cloudy 20 - - - -
18/08:30am 16.4 N 5 6 1017.9 - 0.0 - Mostly clear 8 - - - -
18/08:00am 15.2 N 4 5 1017.8 - 0.0 Smoke Mostly clear 5 - - - -
18/07:30am 12.8 WNW 2 3 1017.7 - 0.0 Fog Mostly clear 0.5 - - - -
18/07:00am 10.5 NW 4 4 1017.6 - 0.0 Fog Mostly clear 0.1 - - - -
18/06:30am 8.8 N 3 4 1017.4 - 0.0 Fog Mostly clear 0.1 - - - -
18/06:00am 8.7 N 4 4 1017.5 F 0.0 Fog Mostly clear 0 - - - -
18/05:30am 10.2 WNW 5 5 1017.3 - 0.0 - Partly cloudy 0.1 - - - -
18/05:25am 10.7 WNW 4 5 1017.3 - 0.0 - Partly cloudy 0.2 - - - -
18/05:00am 11.6 W 3 4 1017.3 - 0.0 - Partly cloudy 1 - - - -
18/04:30am 12.3 WNW 4 5 1017.5 - 0.0 - Cloudy 1 - - - -
18/04:00am 12.0 NW 2 4 1017.6 - 0.0 - Cloudy 0.6 - - - -
18/03:30am 12.0 W 3 4 1017.4 - 0.0 - Cloudy 1 - - - -
18/03:00am 11.9 WNW 3 5 1017.6 - 0.0 - Cloudy 0.9 - - - -
18/02:30am 11.6 W 4 5 1017.6 - 0.0 - Cloudy 1 - - - -
18/02:00am 11.4 WNW 5 6 1017.7 - 0.0 - Cloudy 1 - - - -
18/01:44am 11.2 WNW 4 6 1017.7 - 0.0 - Cloudy 6 - - - -
18/01:30am 11.0 NNW 3 4 1017.8 - 0.0 - Cloudy 9 - - - -
18/01:03am 10.5 N 4 5 1017.9 - 0.0 - Cloudy 8 - - - -
18/01:00am 10.8 NNW 4 5 1017.9 - 0.0 - Cloudy 8 - - - -
18/12:30am 10.0 WNW 4 4 1017.8 - 0.0 - Partly cloudy 0.6 - - - -
18/12:24am 9.7 WNW 4 4 1017.8 - 0.0 - Partly cloudy 2 - - - -
18/12:00am 9.3 CALM 0 0 1018.1 - 0.0 - - 0.3 - - - -
 
Date/Time
WST
Temp

°C
Wind Pressure Rain
since 9am
mm
Weather Cloud Vis
km
Sea
Height
m
Swell
Dir
 
Speed
knots
Gust
knots
hPa Trend Height
m
Period
s
Dir
17/11:30pm 9.6 E 3 3 1017.8 - 0.0 - - 0.2 - - - -
17/11:00pm 11.9 S 3 4 1018.0 - 0.0 - - 2 - - - -
17/10:47pm 11.5 S 4 5 1018.1 - 0.0 - - 6 - - - -
17/10:30pm 12.6 SSE 5 6 1018.3 - 0.0 - - 10 - - - -
17/10:00pm 11.2 S 5 5 1018.7 - 0.0 - - 8 - - - -
17/09:30pm 11.6 S 5 6 1018.8 - 0.0 - - 10 - - - -
17/09:00pm 12.4 E 4 5 1018.8 - 0.0 - - 10 - - - -
17/08:30pm 12.0 ESE 3 4 1018.5 - 0.0 - - 10 - - - -
17/08:00pm 12.5 ENE 5 5 1018.3 - 0.0 - - 10 - - - -
17/07:30pm 13.2 ESE 4 5 1018.1 - 0.0 - - 10 - - - -
17/07:00pm 14.6 E 6 9 1017.7 - 0.0 - - 10 - - - -
17/06:30pm 14.0 E 6 7 1017.1 - 0.0 - - 10 - - - -
17/06:00pm 15.1 ESE 7 9 1017.2 - 0.0 - - 10 - - - -
17/05:30pm 16.6 SE 8 11 1017.0 - 0.0 - - 10 - - - -
17/05:00pm 17.7 SE 9 12 1016.8 - 0.0 - Mostly clear 10 - - - -
17/04:30pm 18.4 SE 10 14 1016.4 - 0.0 - Mostly clear 10 - - - -
17/04:00pm 18.8 ESE 11 13 1016.0 - 0.0 - Mostly clear 10 - - - -
17/03:30pm 19.3 ESE 9 11 1015.8 - 0.0 - Mostly clear 10 - - - -
17/03:00pm 19.0 ESE 10 13 1016.0 F 0.0 Smoke Mostly cloudy 20 - - - -
17/02:30pm 19.0 ESE 11 15 1015.8 - 0.0 - Mostly clear 10 - - - -
17/02:00pm 18.9 ESE 10 13 1016.1 - 0.0 - Mostly clear 10 - - - -
17/01:30pm 19.1 ESE 9 11 1016.2 - 0.0 - Mostly clear 10 - - - -
17/01:00pm 19.6 ESE 10 12 1016.4 - 0.0 - Mostly clear 10 - - - -
17/12:30pm 19.1 ESE 11 14 1016.9 - 0.0 - Mostly clear 10 - - - -
17/12:00pm 18.8 ESE 10 13 1017.4 F 0.0 Smoke Mostly cloudy 20 - - - -
17/11:30am 18.9 E 9 13 1017.9 - 0.0 - Mostly clear 10 - - - -
17/11:00am 17.8 E 10 13 1018.3 - 0.0 - Mostly clear 10 - - - -
17/10:30am 16.8 E 10 13 1018.6 - 0.0 - Mostly clear 10 - - - -
17/10:00am 16.8 E 10 13 1019.2 - 0.0 - Mostly clear 10 - - - -
17/09:30am 15.7 E 11 16 1019.3 - 0.0 - Mostly clear 10 - - - -
17/09:00am 14.3 ENE 8 11 1019.7 F 0.0 Haze Mostly cloudy 25 - - - -
17/08:30am 13.6 ENE 7 9 1019.9 - 0.0 - - 10 - - - -
17/08:00am 11.8 ENE 5 8 1020.0 - 0.0 - Partly cloudy 10 - - - -
17/07:30am 9.8 ENE 6 7 1019.9 - 0.0 - Partly cloudy 10 - - - -
17/07:00am 8.8 ENE 6 8 1019.6 - 0.0 - Mostly clear 10 - - - -
17/06:30am 7.6 ENE 6 6 1019.4 - 0.0 - Mostly clear 10 - - - -
17/06:00am 6.4 ENE 5 6 1019.6 F 0.0 Fine Mostly cloudy 30 - - - -
17/05:30am 6.8 ENE 5 6 1019.2 - 0.0 - - 10 - - - -
17/05:00am 7.5 ENE 5 7 1019.2 - 0.0 - - 10 - - - -
17/04:30am 7.3 ENE 5 6 1019.0 - 0.0 - - 10 - - - -
17/04:00am 7.2 ENE 6 6 1019.2 - 0.0 - - 10 - - - -

Other Formats:

Comma delimited format used in spreadsheet applications
http://www.bom.gov.au/fwo/IDW60701/IDW60701.94802.axf

JavaScript Object Notation format (JSON) in row-major order
http://www.bom.gov.au/fwo/IDW60701/IDW60701.94802.json